Terminal Aerodrome Forecast
Issued by NWS Charleston, WV

Current Version | Previous Version | Text Only | Print | Product List | Glossary Off
Versions: 1 2 3 4 5 6 7 8 9 10 11 12 13 14 15 16 17 18 19 20 21 22 23 24

060
FTUS41 KRLX 092341
TAFEKN
TAF
KEKN 092341Z 1000/1024 27009G18KT 4SM -SHSN SCT015 OVC025
     FM100900 27009G18KT 2SM -SHSN OVC015
     FM101900 26012G18KT 6SM -SHSN BKN015
     FM102300 29010G15KT 6SM -SHSN OVC010=

USA.gov is the U.S. government's official web portal to all federal, state and local government web resources and services.